sensor_id;sensor_type;location;lat;lon;timestamp;P1;durP1;ratioP1;P2;durP2;ratioP2
65831;SDS011;52593;42.648;23.332;2022-12-20T00:01:10;15.75;;;5.78;;
65831;SDS011;52593;42.648;23.332;2022-12-20T00:03:44;14.55;;;5.53;;
65831;SDS011;52593;42.648;23.332;2022-12-20T00:06:12;15.30;;;5.70;;
65831;SDS011;52593;42.648;23.332;2022-12-20T00:08:38;14.50;;;5.33;;
65831;SDS011;52593;42.648;23.332;2022-12-20T00:11:04;14.32;;;5.13;;
65831;SDS011;52593;42.648;23.332;2022-12-20T00:13:31;16.52;;;4.97;;
65831;SDS011;52593;42.648;23.332;2022-12-20T00:16:04;13.35;;;4.80;;
65831;SDS011;52593;42.648;23.332;2022-12-20T00:18:31;13.47;;;4.50;;
65831;SDS011;52593;42.648;23.332;2022-12-20T00:20:57;13.82;;;4.72;;
65831;SDS011;52593;42.648;23.332;2022-12-20T00:23:27;14.93;;;5.33;;
65831;SDS011;52593;42.648;23.332;2022-12-20T00:25:59;16.38;;;4.85;;
65831;SDS011;52593;42.648;23.332;2022-12-20T00:28:25;15.65;;;5.93;;
65831;SDS011;52593;42.648;23.332;2022-12-20T00:30:54;14.23;;;4.93;;
65831;SDS011;52593;42.648;23.332;2022-12-20T00:33:20;13.50;;;4.95;;
65831;SDS011;52593;42.648;23.332;2022-12-20T00:35:45;15.17;;;5.23;;
65831;SDS011;52593;42.648;23.332;2022-12-20T00:38:11;15.20;;;5.07;;
65831;SDS011;52593;42.648;23.332;2022-12-20T00:40:36;13.77;;;4.70;;
65831;SDS011;52593;42.648;23.332;2022-12-20T00:43:01;13.90;;;4.70;;
65831;SDS011;52593;42.648;23.332;2022-12-20T00:45:27;14.13;;;4.83;;
65831;SDS011;52593;42.648;23.332;2022-12-20T00:47:52;12.93;;;4.60;;
65831;SDS011;52593;42.648;23.332;2022-12-20T00:50:18;16.40;;;4.88;;
65831;SDS011;52593;42.648;23.332;2022-12-20T00:52:43;10.80;;;4.33;;
65831;SDS011;52593;42.648;23.332;2022-12-20T00:55:08;12.00;;;4.30;;
65831;SDS011;52593;42.648;23.332;2022-12-20T00:57:34;14.53;;;4.67;;
65831;SDS011;52593;42.648;23.332;2022-12-20T00:59:59;15.20;;;5.13;;
65831;SDS011;52593;42.648;23.332;2022-12-20T01:02:25;12.73;;;4.72;;
65831;SDS011;52593;42.648;23.332;2022-12-20T01:04:50;14.50;;;4.77;;
65831;SDS011;52593;42.648;23.332;2022-12-20T01:07:15;13.47;;;4.80;;
65831;SDS011;52593;42.648;23.332;2022-12-20T01:09:41;13.90;;;4.90;;
65831;SDS011;52593;42.648;23.332;2022-12-20T01:12:06;15.00;;;4.83;;
65831;SDS011;52593;42.648;23.332;2022-12-20T01:14:32;15.20;;;4.85;;
65831;SDS011;52593;42.648;23.332;2022-12-20T01:16:57;14.17;;;4.80;;
65831;SDS011;52593;42.648;23.332;2022-12-20T01:19:23;14.98;;;5.13;;
65831;SDS011;52593;42.648;23.332;2022-12-20T01:21:49;13.23;;;5.00;;
65831;SDS011;52593;42.648;23.332;2022-12-20T01:24:15;13.07;;;5.00;;
65831;SDS011;52593;42.648;23.332;2022-12-20T01:26:42;13.33;;;4.50;;
65831;SDS011;52593;42.648;23.332;2022-12-20T01:29:08;14.23;;;4.80;;
65831;SDS011;52593;42.648;23.332;2022-12-20T01:31:34;19.10;;;5.20;;
65831;SDS011;52593;42.648;23.332;2022-12-20T01:34:00;13.90;;;4.83;;
65831;SDS011;52593;42.648;23.332;2022-12-20T01:36:27;14.57;;;5.45;;
65831;SDS011;52593;42.648;23.332;2022-12-20T01:38:55;14.65;;;5.15;;
65831;SDS011;52593;42.648;23.332;2022-12-20T01:41:22;14.97;;;4.83;;
65831;SDS011;52593;42.648;23.332;2022-12-20T01:46:15;16.58;;;4.78;;
65831;SDS011;52593;42.648;23.332;2022-12-20T01:48:41;16.98;;;5.10;;
65831;SDS011;52593;42.648;23.332;2022-12-20T01:51:10;10.97;;;4.30;;
65831;SDS011;52593;42.648;23.332;2022-12-20T01:53:36;13.70;;;4.90;;
65831;SDS011;52593;42.648;23.332;2022-12-20T01:56:03;12.83;;;5.20;;
65831;SDS011;52593;42.648;23.332;2022-12-20T01:58:30;14.23;;;4.88;;
65831;SDS011;52593;42.648;23.332;2022-12-20T02:00:57;16.65;;;5.25;;
65831;SDS011;52593;42.648;23.332;2022-12-20T02:03:22;10.93;;;4.43;;
65831;SDS011;52593;42.648;23.332;2022-12-20T02:05:49;11.93;;;4.53;;
65831;SDS011;52593;42.648;23.332;2022-12-20T02:08:15;14.57;;;4.88;;
65831;SDS011;52593;42.648;23.332;2022-12-20T02:13:41;12.55;;;4.55;;
65831;SDS011;52593;42.648;23.332;2022-12-20T02:16:12;13.50;;;4.57;;
65831;SDS011;52593;42.648;23.332;2022-12-20T02:18:45;16.88;;;4.80;;
65831;SDS011;52593;42.648;23.332;2022-12-20T02:21:21;14.35;;;5.38;;
65831;SDS011;52593;42.648;23.332;2022-12-20T02:32:07;13.82;;;5.13;;
65831;SDS011;52593;42.648;23.332;2022-12-20T02:34:40;13.93;;;5.18;;
65831;SDS011;52593;42.648;23.332;2022-12-20T02:37:06;17.27;;;5.10;;
65831;SDS011;52593;42.648;23.332;2022-12-20T02:39:32;14.43;;;5.18;;
65831;SDS011;52593;42.648;23.332;2022-12-20T02:42:00;13.32;;;4.95;;
65831;SDS011;52593;42.648;23.332;2022-12-20T02:44:30;14.10;;;4.83;;
65831;SDS011;52593;42.648;23.332;2022-12-20T02:47:18;13.80;;;5.22;;
65831;SDS011;52593;42.648;23.332;2022-12-20T02:49:48;14.85;;;4.85;;
65831;SDS011;52593;42.648;23.332;2022-12-20T02:52:15;13.35;;;4.75;;
65831;SDS011;52593;42.648;23.332;2022-12-20T02:54:44;15.05;;;4.93;;
65831;SDS011;52593;42.648;23.332;2022-12-20T02:57:15;17.10;;;5.93;;
65831;SDS011;52593;42.648;23.332;2022-12-20T03:02:10;14.03;;;5.17;;
65831;SDS011;52593;42.648;23.332;2022-12-20T03:04:37;15.18;;;5.28;;
65831;SDS011;52593;42.648;23.332;2022-12-20T03:07:09;15.13;;;5.72;;
65831;SDS011;52593;42.648;23.332;2022-12-20T03:09:38;15.03;;;5.67;;
65831;SDS011;52593;42.648;23.332;2022-12-20T03:12:06;15.63;;;5.38;;
65831;SDS011;52593;42.648;23.332;2022-12-20T03:14:32;16.60;;;5.93;;
65831;SDS011;52593;42.648;23.332;2022-12-20T03:16:58;15.40;;;5.97;;
65831;SDS011;52593;42.648;23.332;2022-12-20T03:19:23;16.20;;;6.07;;
65831;SDS011;52593;42.648;23.332;2022-12-20T03:21:49;16.30;;;6.07;;
65831;SDS011;52593;42.648;23.332;2022-12-20T03:24:15;15.73;;;5.70;;
65831;SDS011;52593;42.648;23.332;2022-12-20T03:26:41;17.17;;;6.43;;
65831;SDS011;52593;42.648;23.332;2022-12-20T03:29:07;16.10;;;5.68;;
65831;SDS011;52593;42.648;23.332;2022-12-20T03:31:33;16.80;;;6.35;;
65831;SDS011;52593;42.648;23.332;2022-12-20T03:33:59;16.97;;;5.77;;
65831;SDS011;52593;42.648;23.332;2022-12-20T03:36:25;14.07;;;6.17;;
65831;SDS011;52593;42.648;23.332;2022-12-20T03:38:50;14.73;;;6.25;;
65831;SDS011;52593;42.648;23.332;2022-12-20T03:41:16;14.53;;;5.37;;
65831;SDS011;52593;42.648;23.332;2022-12-20T03:43:42;16.30;;;6.22;;
65831;SDS011;52593;42.648;23.332;2022-12-20T03:46:08;15.20;;;6.30;;
65831;SDS011;52593;42.648;23.332;2022-12-20T03:48:33;17.33;;;6.15;;
65831;SDS011;52593;42.648;23.332;2022-12-20T03:50:59;15.33;;;5.83;;
65831;SDS011;52593;42.648;23.332;2022-12-20T03:53:24;16.90;;;6.40;;
65831;SDS011;52593;42.648;23.332;2022-12-20T03:55:50;17.57;;;6.60;;
65831;SDS011;52593;42.648;23.332;2022-12-20T03:58:15;20.08;;;6.50;;
65831;SDS011;52593;42.648;23.332;2022-12-20T04:00:40;16.63;;;6.03;;
65831;SDS011;52593;42.648;23.332;2022-12-20T04:03:06;17.43;;;6.03;;
65831;SDS011;52593;42.648;23.332;2022-12-20T04:05:31;16.47;;;6.00;;
65831;SDS011;52593;42.648;23.332;2022-12-20T04:07:57;18.57;;;6.27;;
65831;SDS011;52593;42.648;23.332;2022-12-20T04:10:22;15.60;;;6.32;;
65831;SDS011;52593;42.648;23.332;2022-12-20T04:12:47;14.30;;;5.87;;
65831;SDS011;52593;42.648;23.332;2022-12-20T04:15:13;18.67;;;6.80;;
65831;SDS011;52593;42.648;23.332;2022-12-20T04:17:38;15.63;;;6.10;;
65831;SDS011;52593;42.648;23.332;2022-12-20T04:20:04;19.10;;;6.80;;
65831;SDS011;52593;42.648;23.332;2022-12-20T04:22:43;16.63;;;5.88;;
65831;SDS011;52593;42.648;23.332;2022-12-20T04:25:12;16.77;;;6.35;;
65831;SDS011;52593;42.648;23.332;2022-12-20T04:27:38;17.83;;;6.32;;
65831;SDS011;52593;42.648;23.332;2022-12-20T04:30:03;16.00;;;6.10;;
65831;SDS011;52593;42.648;23.332;2022-12-20T04:32:29;17.73;;;6.55;;
65831;SDS011;52593;42.648;23.332;2022-12-20T04:34:54;16.27;;;6.70;;
65831;SDS011;52593;42.648;23.332;2022-12-20T04:37:20;16.60;;;6.53;;
65831;SDS011;52593;42.648;23.332;2022-12-20T04:39:45;19.90;;;7.57;;
65831;SDS011;52593;42.648;23.332;2022-12-20T04:42:10;18.57;;;6.83;;
65831;SDS011;52593;42.648;23.332;2022-12-20T04:44:36;19.63;;;6.87;;
65831;SDS011;52593;42.648;23.332;2022-12-20T04:47:01;17.67;;;6.73;;
65831;SDS011;52593;42.648;23.332;2022-12-20T04:49:27;17.30;;;6.33;;
65831;SDS011;52593;42.648;23.332;2022-12-20T04:51:52;16.37;;;6.67;;
65831;SDS011;52593;42.648;23.332;2022-12-20T04:54:18;17.00;;;6.47;;
65831;SDS011;52593;42.648;23.332;2022-12-20T04:56:43;17.27;;;6.97;;
65831;SDS011;52593;42.648;23.332;2022-12-20T04:59:08;18.87;;;6.70;;
65831;SDS011;52593;42.648;23.332;2022-12-20T05:01:35;23.85;;;8.90;;
65831;SDS011;52593;42.648;23.332;2022-12-20T05:04:01;26.23;;;7.27;;
65831;SDS011;52593;42.648;23.332;2022-12-20T05:06:26;22.73;;;7.67;;
65831;SDS011;52593;42.648;23.332;2022-12-20T05:08:51;21.77;;;6.97;;
65831;SDS011;52593;42.648;23.332;2022-12-20T05:11:19;17.70;;;7.45;;
65831;SDS011;52593;42.648;23.332;2022-12-20T05:13:44;19.27;;;6.87;;
65831;SDS011;52593;42.648;23.332;2022-12-20T05:16:09;22.30;;;9.20;;
65831;SDS011;52593;42.648;23.332;2022-12-20T05:18:35;22.67;;;9.07;;
65831;SDS011;52593;42.648;23.332;2022-12-20T05:21:00;18.40;;;8.90;;
65831;SDS011;52593;42.648;23.332;2022-12-20T05:23:46;21.95;;;7.82;;
65831;SDS011;52593;42.648;23.332;2022-12-20T05:26:32;24.10;;;7.28;;
65831;SDS011;52593;42.648;23.332;2022-12-20T05:29:00;18.83;;;6.90;;
65831;SDS011;52593;42.648;23.332;2022-12-20T05:31:25;17.30;;;6.38;;
65831;SDS011;52593;42.648;23.332;2022-12-20T05:33:51;21.33;;;6.87;;
65831;SDS011;52593;42.648;23.332;2022-12-20T05:36:18;18.27;;;6.85;;
65831;SDS011;52593;42.648;23.332;2022-12-20T05:38:44;17.42;;;6.13;;
65831;SDS011;52593;42.648;23.332;2022-12-20T05:41:09;18.43;;;6.73;;
65831;SDS011;52593;42.648;23.332;2022-12-20T05:43:34;17.50;;;6.53;;
65831;SDS011;52593;42.648;23.332;2022-12-20T05:46:00;16.65;;;6.30;;
65831;SDS011;52593;42.648;23.332;2022-12-20T05:48:25;14.93;;;6.00;;
65831;SDS011;52593;42.648;23.332;2022-12-20T05:50:51;18.87;;;6.27;;
65831;SDS011;52593;42.648;23.332;2022-12-20T05:53:16;19.93;;;6.70;;
65831;SDS011;52593;42.648;23.332;2022-12-20T05:55:48;16.25;;;6.72;;
65831;SDS011;52593;42.648;23.332;2022-12-20T05:58:15;16.93;;;6.17;;
65831;SDS011;52593;42.648;23.332;2022-12-20T06:00:41;16.20;;;6.53;;
65831;SDS011;52593;42.648;23.332;2022-12-20T06:03:08;19.52;;;6.63;;
65831;SDS011;52593;42.648;23.332;2022-12-20T06:05:35;23.17;;;7.57;;
65831;SDS011;52593;42.648;23.332;2022-12-20T06:08:02;23.13;;;8.43;;
65831;SDS011;52593;42.648;23.332;2022-12-20T06:10:28;24.98;;;7.57;;
65831;SDS011;52593;42.648;23.332;2022-12-20T06:12:53;22.97;;;8.17;;
65831;SDS011;52593;42.648;23.332;2022-12-20T06:15:19;21.67;;;7.60;;
65831;SDS011;52593;42.648;23.332;2022-12-20T06:17:44;20.33;;;7.45;;
65831;SDS011;52593;42.648;23.332;2022-12-20T06:20:10;20.17;;;7.57;;
65831;SDS011;52593;42.648;23.332;2022-12-20T06:22:36;22.55;;;6.85;;
65831;SDS011;52593;42.648;23.332;2022-12-20T06:25:01;21.73;;;8.30;;
65831;SDS011;52593;42.648;23.332;2022-12-20T06:27:46;23.63;;;8.20;;
65831;SDS011;52593;42.648;23.332;2022-12-20T06:30:11;23.73;;;8.50;;
65831;SDS011;52593;42.648;23.332;2022-12-20T06:32:37;20.70;;;8.32;;
65831;SDS011;52593;42.648;23.332;2022-12-20T06:35:03;20.13;;;7.47;;
65831;SDS011;52593;42.648;23.332;2022-12-20T06:37:29;21.48;;;8.93;;
65831;SDS011;52593;42.648;23.332;2022-12-20T06:39:56;22.48;;;8.48;;
65831;SDS011;52593;42.648;23.332;2022-12-20T06:42:21;20.63;;;7.50;;
65831;SDS011;52593;42.648;23.332;2022-12-20T06:44:46;24.43;;;8.33;;
65831;SDS011;52593;42.648;23.332;2022-12-20T06:47:12;19.80;;;7.70;;
65831;SDS011;52593;42.648;23.332;2022-12-20T06:49:37;19.67;;;7.47;;
65831;SDS011;52593;42.648;23.332;2022-12-20T06:52:03;18.77;;;7.03;;
65831;SDS011;52593;42.648;23.332;2022-12-20T06:54:28;20.42;;;6.93;;
65831;SDS011;52593;42.648;23.332;2022-12-20T06:56:54;20.03;;;7.27;;
65831;SDS011;52593;42.648;23.332;2022-12-20T06:59:19;21.80;;;7.97;;
65831;SDS011;52593;42.648;23.332;2022-12-20T07:01:45;20.00;;;7.40;;
65831;SDS011;52593;42.648;23.332;2022-12-20T07:04:10;18.47;;;7.23;;
65831;SDS011;52593;42.648;23.332;2022-12-20T07:06:35;21.00;;;8.10;;
65831;SDS011;52593;42.648;23.332;2022-12-20T07:09:01;23.10;;;7.57;;
65831;SDS011;52593;42.648;23.332;2022-12-20T07:11:26;17.70;;;7.10;;
65831;SDS011;52593;42.648;23.332;2022-12-20T07:13:54;21.73;;;7.47;;
65831;SDS011;52593;42.648;23.332;2022-12-20T07:16:20;18.55;;;7.03;;
65831;SDS011;52593;42.648;23.332;2022-12-20T07:18:50;18.13;;;7.07;;
65831;SDS011;52593;42.648;23.332;2022-12-20T07:21:16;21.75;;;6.90;;
65831;SDS011;52593;42.648;23.332;2022-12-20T07:23:43;19.95;;;6.85;;
65831;SDS011;52593;42.648;23.332;2022-12-20T07:26:09;16.35;;;6.63;;
65831;SDS011;52593;42.648;23.332;2022-12-20T07:28:35;19.77;;;7.40;;
65831;SDS011;52593;42.648;23.332;2022-12-20T07:31:00;17.77;;;6.93;;
65831;SDS011;52593;42.648;23.332;2022-12-20T07:33:27;19.52;;;6.95;;
65831;SDS011;52593;42.648;23.332;2022-12-20T07:35:58;19.08;;;6.97;;
65831;SDS011;52593;42.648;23.332;2022-12-20T07:38:28;18.25;;;6.60;;
65831;SDS011;52593;42.648;23.332;2022-12-20T07:40:54;20.43;;;7.30;;
65831;SDS011;52593;42.648;23.332;2022-12-20T07:43:19;16.27;;;6.93;;
65831;SDS011;52593;42.648;23.332;2022-12-20T07:45:44;20.57;;;7.13;;
65831;SDS011;52593;42.648;23.332;2022-12-20T07:48:11;18.80;;;6.28;;
65831;SDS011;52593;42.648;23.332;2022-12-20T07:50:36;22.50;;;7.57;;
65831;SDS011;52593;42.648;23.332;2022-12-20T07:53:02;20.13;;;7.90;;
65831;SDS011;52593;42.648;23.332;2022-12-20T07:55:30;15.75;;;6.30;;
65831;SDS011;52593;42.648;23.332;2022-12-20T07:57:56;21.03;;;7.10;;
65831;SDS011;52593;42.648;23.332;2022-12-20T08:00:26;17.88;;;6.25;;
65831;SDS011;52593;42.648;23.332;2022-12-20T08:02:56;17.48;;;6.55;;
65831;SDS011;52593;42.648;23.332;2022-12-20T08:05:26;18.07;;;6.17;;
65831;SDS011;52593;42.648;23.332;2022-12-20T08:07:53;19.48;;;7.18;;
65831;SDS011;52593;42.648;23.332;2022-12-20T08:10:22;16.83;;;7.13;;
65831;SDS011;52593;42.648;23.332;2022-12-20T08:12:47;19.47;;;6.60;;
65831;SDS011;52593;42.648;23.332;2022-12-20T08:15:14;21.40;;;6.88;;
65831;SDS011;52593;42.648;23.332;2022-12-20T08:17:39;21.67;;;6.93;;
65831;SDS011;52593;42.648;23.332;2022-12-20T08:20:05;19.53;;;7.30;;
65831;SDS011;52593;42.648;23.332;2022-12-20T08:22:32;16.45;;;6.15;;
65831;SDS011;52593;42.648;23.332;2022-12-20T08:24:58;19.57;;;6.30;;
65831;SDS011;52593;42.648;23.332;2022-12-20T08:27:24;18.33;;;6.18;;
65831;SDS011;52593;42.648;23.332;2022-12-20T08:29:49;17.93;;;6.17;;
65831;SDS011;52593;42.648;23.332;2022-12-20T08:32:15;12.73;;;5.00;;
65831;SDS011;52593;42.648;23.332;2022-12-20T08:34:40;11.90;;;4.68;;
65831;SDS011;52593;42.648;23.332;2022-12-20T08:37:06;18.60;;;5.67;;
65831;SDS011;52593;42.648;23.332;2022-12-20T08:39:31;20.07;;;5.57;;
65831;SDS011;52593;42.648;23.332;2022-12-20T08:41:57;15.77;;;5.40;;
65831;SDS011;52593;42.648;23.332;2022-12-20T08:44:22;14.63;;;5.50;;
65831;SDS011;52593;42.648;23.332;2022-12-20T08:46:47;18.63;;;5.77;;
65831;SDS011;52593;42.648;23.332;2022-12-20T08:49:13;16.47;;;5.60;;
65831;SDS011;52593;42.648;23.332;2022-12-20T08:51:38;14.73;;;5.73;;
65831;SDS011;52593;42.648;23.332;2022-12-20T08:54:04;15.30;;;5.63;;
65831;SDS011;52593;42.648;23.332;2022-12-20T08:56:29;21.00;;;7.82;;
65831;SDS011;52593;42.648;23.332;2022-12-20T08:58:54;14.60;;;5.73;;
65831;SDS011;52593;42.648;23.332;2022-12-20T09:01:20;13.57;;;5.33;;
65831;SDS011;52593;42.648;23.332;2022-12-20T09:03:46;15.70;;;6.00;;
65831;SDS011;52593;42.648;23.332;2022-12-20T09:06:16;14.73;;;5.75;;
65831;SDS011;52593;42.648;23.332;2022-12-20T09:08:44;13.13;;;5.38;;
65831;SDS011;52593;42.648;23.332;2022-12-20T09:13:44;15.60;;;5.82;;
65831;SDS011;52593;42.648;23.332;2022-12-20T09:16:11;18.23;;;6.38;;
65831;SDS011;52593;42.648;23.332;2022-12-20T09:18:37;16.15;;;5.57;;
65831;SDS011;52593;42.648;23.332;2022-12-20T09:21:04;35.57;;;7.60;;
65831;SDS011;52593;42.648;23.332;2022-12-20T09:23:32;17.00;;;5.47;;
65831;SDS011;52593;42.648;23.332;2022-12-20T09:26:02;15.82;;;6.32;;
65831;SDS011;52593;42.648;23.332;2022-12-20T09:28:29;16.80;;;6.63;;
65831;SDS011;52593;42.648;23.332;2022-12-20T09:30:58;15.05;;;6.13;;
65831;SDS011;52593;42.648;23.332;2022-12-20T09:33:28;16.00;;;6.05;;
65831;SDS011;52593;42.648;23.332;2022-12-20T09:35:55;17.80;;;6.45;;
65831;SDS011;52593;42.648;23.332;2022-12-20T09:38:21;17.98;;;5.68;;
65831;SDS011;52593;42.648;23.332;2022-12-20T09:40:47;20.00;;;6.50;;
65831;SDS011;52593;42.648;23.332;2022-12-20T09:43:15;17.77;;;6.30;;
65831;SDS011;52593;42.648;23.332;2022-12-20T09:45:42;19.17;;;6.75;;
65831;SDS011;52593;42.648;23.332;2022-12-20T09:48:44;17.25;;;5.95;;
65831;SDS011;52593;42.648;23.332;2022-12-20T09:54:31;17.30;;;6.40;;
65831;SDS011;52593;42.648;23.332;2022-12-20T09:57:08;16.77;;;5.82;;
65831;SDS011;52593;42.648;23.332;2022-12-20T09:59:47;15.57;;;5.35;;
65831;SDS011;52593;42.648;23.332;2022-12-20T10:02:13;16.60;;;6.00;;
65831;SDS011;52593;42.648;23.332;2022-12-20T10:04:44;17.58;;;6.40;;
65831;SDS011;52593;42.648;23.332;2022-12-20T10:07:57;16.33;;;6.23;;
65831;SDS011;52593;42.648;23.332;2022-12-20T10:18:20;16.10;;;6.50;;
65831;SDS011;52593;42.648;23.332;2022-12-20T10:23:59;15.68;;;5.90;;
65831;SDS011;52593;42.648;23.332;2022-12-20T10:26:26;16.05;;;5.55;;
65831;SDS011;52593;42.648;23.332;2022-12-20T10:28:53;16.10;;;6.10;;
65831;SDS011;52593;42.648;23.332;2022-12-20T10:31:18;16.33;;;6.43;;
65831;SDS011;52593;42.648;23.332;2022-12-20T10:33:44;13.77;;;5.70;;
65831;SDS011;52593;42.648;23.332;2022-12-20T10:38:56;16.67;;;5.78;;
65831;SDS011;52593;42.648;23.332;2022-12-20T10:46:40;17.00;;;5.75;;
65831;SDS011;52593;42.648;23.332;2022-12-20T10:49:29;18.20;;;6.63;;
65831;SDS011;52593;42.648;23.332;2022-12-20T10:52:00;16.35;;;5.47;;
65831;SDS011;52593;42.648;23.332;2022-12-20T10:57:02;13.88;;;5.40;;
65831;SDS011;52593;42.648;23.332;2022-12-20T10:59:38;15.18;;;6.07;;
65831;SDS011;52593;42.648;23.332;2022-12-20T11:05:01;14.65;;;5.10;;
65831;SDS011;52593;42.648;23.332;2022-12-20T11:07:36;13.80;;;5.38;;
65831;SDS011;52593;42.648;23.332;2022-12-20T11:10:23;12.55;;;4.90;;
65831;SDS011;52593;42.648;23.332;2022-12-20T11:15:24;14.87;;;4.60;;
65831;SDS011;52593;42.648;23.332;2022-12-20T11:17:52;13.48;;;4.80;;
65831;SDS011;52593;42.648;23.332;2022-12-20T11:35:02;13.07;;;4.47;;
65831;SDS011;52593;42.648;23.332;2022-12-20T11:46:03;15.63;;;4.57;;
65831;SDS011;52593;42.648;23.332;2022-12-20T11:51:21;12.98;;;4.50;;
65831;SDS011;52593;42.648;23.332;2022-12-20T11:56:32;15.53;;;5.30;;
65831;SDS011;52593;42.648;23.332;2022-12-20T12:01:28;12.63;;;4.53;;
65831;SDS011;52593;42.648;23.332;2022-12-20T12:04:25;13.65;;;4.45;;
65831;SDS011;52593;42.648;23.332;2022-12-20T12:07:02;10.93;;;4.22;;
65831;SDS011;52593;42.648;23.332;2022-12-20T12:09:41;11.23;;;4.78;;
65831;SDS011;52593;42.648;23.332;2022-12-20T12:12:21;13.55;;;4.75;;
65831;SDS011;52593;42.648;23.332;2022-12-20T12:17:58;11.10;;;4.63;;
65831;SDS011;52593;42.648;23.332;2022-12-20T12:23:06;25.42;;;10.80;;
65831;SDS011;52593;42.648;23.332;2022-12-20T12:25:46;14.98;;;6.18;;
65831;SDS011;52593;42.648;23.332;2022-12-20T12:28:12;11.47;;;4.40;;
65831;SDS011;52593;42.648;23.332;2022-12-20T12:30:40;13.30;;;5.68;;
65831;SDS011;52593;42.648;23.332;2022-12-20T12:33:14;12.87;;;5.63;;
65831;SDS011;52593;42.648;23.332;2022-12-20T12:35:46;17.85;;;5.70;;
65831;SDS011;52593;42.648;23.332;2022-12-20T12:38:24;15.68;;;6.13;;
65831;SDS011;52593;42.648;23.332;2022-12-20T12:46:12;15.10;;;5.57;;
65831;SDS011;52593;42.648;23.332;2022-12-20T12:48:42;17.38;;;5.65;;
65831;SDS011;52593;42.648;23.332;2022-12-20T12:51:13;15.98;;;5.90;;
65831;SDS011;52593;42.648;23.332;2022-12-20T12:56:58;15.38;;;5.60;;
65831;SDS011;52593;42.648;23.332;2022-12-20T13:01:48;17.10;;;5.82;;
65831;SDS011;52593;42.648;23.332;2022-12-20T13:09:20;17.08;;;6.15;;
65831;SDS011;52593;42.648;23.332;2022-12-20T13:11:56;14.55;;;5.40;;
65831;SDS011;52593;42.648;23.332;2022-12-20T13:16:52;15.90;;;5.40;;
65831;SDS011;52593;42.648;23.332;2022-12-20T13:19:39;17.70;;;5.20;;
65831;SDS011;52593;42.648;23.332;2022-12-20T13:22:24;18.08;;;5.82;;
65831;SDS011;52593;42.648;23.332;2022-12-20T13:25:02;13.77;;;5.35;;
65831;SDS011;52593;42.648;23.332;2022-12-20T13:27:49;13.15;;;5.75;;
65831;SDS011;52593;42.648;23.332;2022-12-20T13:45:45;23.58;;;7.88;;
65831;SDS011;52593;42.648;23.332;2022-12-20T13:48:15;22.27;;;8.50;;
65831;SDS011;52593;42.648;23.332;2022-12-20T13:50:50;23.70;;;8.73;;
65831;SDS011;52593;42.648;23.332;2022-12-20T13:53:18;23.45;;;8.63;;
65831;SDS011;52593;42.648;23.332;2022-12-20T13:55:45;23.75;;;9.30;;
65831;SDS011;52593;42.648;23.332;2022-12-20T13:58:32;25.47;;;10.17;;
65831;SDS011;52593;42.648;23.332;2022-12-20T14:01:04;27.80;;;9.23;;
65831;SDS011;52593;42.648;23.332;2022-12-20T14:03:39;24.42;;;9.43;;
65831;SDS011;52593;42.648;23.332;2022-12-20T14:06:09;25.63;;;10.18;;
65831;SDS011;52593;42.648;23.332;2022-12-20T14:08:38;23.88;;;8.18;;
65831;SDS011;52593;42.648;23.332;2022-12-20T14:13:36;22.30;;;7.85;;
65831;SDS011;52593;42.648;23.332;2022-12-20T14:16:15;20.98;;;8.23;;
65831;SDS011;52593;42.648;23.332;2022-12-20T14:18:46;20.33;;;7.22;;
65831;SDS011;52593;42.648;23.332;2022-12-20T14:21:13;27.25;;;8.73;;
65831;SDS011;52593;42.648;23.332;2022-12-20T14:23:40;25.17;;;8.40;;
65831;SDS011;52593;42.648;23.332;2022-12-20T14:26:54;23.95;;;8.00;;
65831;SDS011;52593;42.648;23.332;2022-12-20T14:29:03;32.45;;;11.20;;
65831;SDS011;52593;42.648;23.332;2022-12-20T14:31:39;27.08;;;10.63;;
65831;SDS011;52593;42.648;23.332;2022-12-20T14:36:35;22.57;;;9.27;;
65831;SDS011;52593;42.648;23.332;2022-12-20T14:39:20;31.40;;;9.82;;
65831;SDS011;52593;42.648;23.332;2022-12-20T14:44:24;51.15;;;13.30;;
65831;SDS011;52593;42.648;23.332;2022-12-20T14:46:52;58.63;;;14.27;;
65831;SDS011;52593;42.648;23.332;2022-12-20T14:51:47;29.65;;;9.90;;
65831;SDS011;52593;42.648;23.332;2022-12-20T14:54:39;17.20;;;6.05;;
65831;SDS011;52593;42.648;23.332;2022-12-20T14:57:09;18.98;;;6.15;;
65831;SDS011;52593;42.648;23.332;2022-12-20T14:59:44;19.05;;;5.78;;
65831;SDS011;52593;42.648;23.332;2022-12-20T15:02:45;16.57;;;5.33;;
65831;SDS011;52593;42.648;23.332;2022-12-20T15:11:27;14.82;;;5.03;;
65831;SDS011;52593;42.648;23.332;2022-12-20T15:13:38;19.98;;;6.53;;
65831;SDS011;52593;42.648;23.332;2022-12-20T15:18:45;14.82;;;4.82;;
65831;SDS011;52593;42.648;23.332;2022-12-20T15:21:15;15.35;;;5.53;;
65831;SDS011;52593;42.648;23.332;2022-12-20T15:23:54;15.70;;;5.30;;
65831;SDS011;52593;42.648;23.332;2022-12-20T15:26:21;15.73;;;5.55;;
65831;SDS011;52593;42.648;23.332;2022-12-20T15:28:48;14.53;;;5.53;;
65831;SDS011;52593;42.648;23.332;2022-12-20T15:31:18;17.20;;;6.45;;
65831;SDS011;52593;42.648;23.332;2022-12-20T15:33:48;17.73;;;6.30;;
65831;SDS011;52593;42.648;23.332;2022-12-20T15:36:18;17.40;;;6.30;;
65831;SDS011;52593;42.648;23.332;2022-12-20T15:38:45;18.38;;;6.85;;
65831;SDS011;52593;42.648;23.332;2022-12-20T15:41:21;15.57;;;6.20;;
65831;SDS011;52593;42.648;23.332;2022-12-20T15:43:53;16.38;;;5.50;;
65831;SDS011;52593;42.648;23.332;2022-12-20T15:46:22;16.48;;;5.75;;
65831;SDS011;52593;42.648;23.332;2022-12-20T15:48:48;17.55;;;5.88;;
65831;SDS011;52593;42.648;23.332;2022-12-20T15:51:16;16.30;;;6.07;;
65831;SDS011;52593;42.648;23.332;2022-12-20T15:53:51;18.00;;;6.57;;
65831;SDS011;52593;42.648;23.332;2022-12-20T15:56:17;22.90;;;7.63;;
65831;SDS011;52593;42.648;23.332;2022-12-20T15:58:46;18.75;;;7.13;;
65831;SDS011;52593;42.648;23.332;2022-12-20T16:01:12;21.47;;;8.23;;
65831;SDS011;52593;42.648;23.332;2022-12-20T16:03:42;17.50;;;7.53;;
65831;SDS011;52593;42.648;23.332;2022-12-20T16:06:09;24.73;;;8.53;;
65831;SDS011;52593;42.648;23.332;2022-12-20T16:08:36;30.83;;;10.10;;
65831;SDS011;52593;42.648;23.332;2022-12-20T16:11:02;33.78;;;11.88;;
65831;SDS011;52593;42.648;23.332;2022-12-20T16:13:30;34.10;;;13.32;;
65831;SDS011;52593;42.648;23.332;2022-12-20T16:15:55;33.87;;;13.07;;
65831;SDS011;52593;42.648;23.332;2022-12-20T16:18:20;34.70;;;11.37;;
65831;SDS011;52593;42.648;23.332;2022-12-20T16:20:46;28.73;;;9.83;;
65831;SDS011;52593;42.648;23.332;2022-12-20T16:23:15;24.15;;;9.02;;
65831;SDS011;52593;42.648;23.332;2022-12-20T16:25:42;22.42;;;8.05;;
65831;SDS011;52593;42.648;23.332;2022-12-20T16:28:08;24.57;;;8.47;;
65831;SDS011;52593;42.648;23.332;2022-12-20T16:30:34;24.13;;;8.00;;
65831;SDS011;52593;42.648;23.332;2022-12-20T16:33:01;20.70;;;7.10;;
65831;SDS011;52593;42.648;23.332;2022-12-20T16:35:28;19.55;;;7.35;;
65831;SDS011;52593;42.648;23.332;2022-12-20T16:38:00;22.10;;;7.47;;
65831;SDS011;52593;42.648;23.332;2022-12-20T16:40:27;21.70;;;7.03;;
65831;SDS011;52593;42.648;23.332;2022-12-20T16:42:54;17.95;;;6.32;;
65831;SDS011;52593;42.648;23.332;2022-12-20T16:45:22;17.00;;;6.75;;
65831;SDS011;52593;42.648;23.332;2022-12-20T16:47:49;16.90;;;6.33;;